createdAt,value
2019-04-03T00:00:39.500Z,18.57
2019-04-03T00:03:00.089Z,18.75
2019-04-03T00:05:20.869Z,19.20
2019-04-03T00:07:41.505Z,18.77
2019-04-03T00:10:02.151Z,19.00
2019-04-03T00:12:22.794Z,18.17
2019-04-03T00:14:43.531Z,18.87
2019-04-03T00:17:04.181Z,19.37
2019-04-03T00:19:24.721Z,19.55
2019-04-03T00:21:45.563Z,18.45
2019-04-03T00:24:07.246Z,17.85
2019-04-03T00:26:30.341Z,19.20
2019-04-03T00:28:50.718Z,17.85
2019-04-03T00:31:12.341Z,17.62
2019-04-03T00:33:32.878Z,17.57
2019-04-03T00:35:53.937Z,18.82
2019-04-03T00:38:15.794Z,18.52
2019-04-03T00:40:36.299Z,18.37
2019-04-03T00:42:57.090Z,18.82
2019-04-03T00:45:17.790Z,18.40
2019-04-03T00:47:38.453Z,18.77
2019-04-03T00:49:59.164Z,18.77
2019-04-03T00:52:20.014Z,19.75
2019-04-03T00:54:40.573Z,17.98
2019-04-03T00:57:01.580Z,18.62
2019-04-03T00:59:22.163Z,20.05
2019-04-03T01:01:42.741Z,18.92
2019-04-03T01:04:03.330Z,19.20
2019-04-03T01:06:23.977Z,19.87
2019-04-03T01:08:44.549Z,19.12
2019-04-03T01:11:05.935Z,18.32
2019-04-03T01:13:26.535Z,18.15
2019-04-03T01:15:47.102Z,20.10
2019-04-03T01:18:07.708Z,18.00
2019-04-03T01:20:28.374Z,18.45
2019-04-03T01:22:48.956Z,20.08
2019-04-03T01:25:09.634Z,19.75
2019-04-03T01:27:30.483Z,18.62
2019-04-03T01:29:51.035Z,17.57
2019-04-03T01:32:11.604Z,19.62
2019-04-03T01:34:32.090Z,19.20
2019-04-03T01:36:52.637Z,20.85
2019-04-03T01:39:13.125Z,19.73
2019-04-03T01:41:33.695Z,19.32
2019-04-03T01:43:54.414Z,19.35
2019-04-03T01:46:14.925Z,19.57
2019-04-03T01:48:35.819Z,19.30
2019-04-03T01:50:57.777Z,18.92
2019-04-03T01:53:18.732Z,14.93
2019-04-03T01:55:39.366Z,19.10
2019-04-03T01:57:59.935Z,19.05
2019-04-03T02:00:40.043Z,19.02
2019-04-03T02:03:02.140Z,19.05
2019-04-03T02:05:22.823Z,19.20
2019-04-03T02:07:44.693Z,19.90
2019-04-03T02:10:07.715Z,19.57
2019-04-03T02:12:27.978Z,13.85
2019-04-03T02:14:50.993Z,19.25
2019-04-03T02:17:10.776Z,19.65
2019-04-03T02:19:31.375Z,19.27
2019-04-03T02:21:51.899Z,19.67
2019-04-03T02:24:12.478Z,19.87
2019-04-03T02:26:33.110Z,20.20
2019-04-03T02:28:54.840Z,19.42
2019-04-03T02:31:18.243Z,20.08
2019-04-03T02:33:37.648Z,18.98
2019-04-03T02:35:58.334Z,18.52
2019-04-03T02:38:21.443Z,19.57
2019-04-03T02:40:41.376Z,18.82
2019-04-03T02:43:02.459Z,19.37
2019-04-03T02:45:24.305Z,18.25
2019-04-03T02:47:45.517Z,19.37
2019-04-03T02:50:07.538Z,18.73
2019-04-03T02:52:28.231Z,19.85
2019-04-03T02:54:49.243Z,18.73
2019-04-03T02:57:10.023Z,19.07
2019-04-03T02:59:30.890Z,19.42
2019-04-03T03:01:51.655Z,18.23
2019-04-03T03:04:12.372Z,19.17
2019-04-03T03:06:33.649Z,18.57
2019-04-03T03:08:54.880Z,18.80
2019-04-03T03:11:16.065Z,19.17
2019-04-03T03:13:38.198Z,18.73
2019-04-03T03:15:59.749Z,17.75
2019-04-03T03:18:20.643Z,18.77
2019-04-03T03:20:41.983Z,19.55
2019-04-03T03:23:03.096Z,18.75
2019-04-03T03:25:23.936Z,19.00
2019-04-03T03:27:45.322Z,19.10
2019-04-03T03:30:30.945Z,18.37
2019-04-03T03:32:35.214Z,18.87
2019-04-03T03:35:06.359Z,19.15
2019-04-03T03:37:15.026Z,19.77
2019-04-03T03:39:36.575Z,18.62
2019-04-03T03:41:58.573Z,18.07
2019-04-03T03:44:22.739Z,15.28
2019-04-03T03:46:44.156Z,19.40
2019-04-03T03:49:05.128Z,19.52
2019-04-03T03:51:30.172Z,18.82
2019-04-03T03:56:07.874Z,19.23
2019-04-03T03:58:29.434Z,18.87
2019-04-03T04:00:52.189Z,18.45
2019-04-03T04:03:12.953Z,14.63
2019-04-03T04:05:33.996Z,19.90
2019-04-03T04:07:55.677Z,19.50
2019-04-03T04:10:16.478Z,20.02
2019-04-03T04:12:41.320Z,20.08
2019-04-03T04:14:59.123Z,20.47
2019-04-03T04:17:21.049Z,18.98
2019-04-03T04:19:43.842Z,19.65
2019-04-03T04:22:04.449Z,19.60
2019-04-03T04:24:27.622Z,20.25
2019-04-03T04:26:49.921Z,20.35
2019-04-03T04:29:11.119Z,20.27
2019-04-03T04:31:32.092Z,19.82
2019-04-03T04:33:52.918Z,20.32
2019-04-03T04:36:13.779Z,19.50
2019-04-03T04:38:34.369Z,20.05
2019-04-03T04:40:55.207Z,19.12
2019-04-03T04:43:16.845Z,19.77
2019-04-03T04:45:37.727Z,20.15
2019-04-03T04:47:58.417Z,20.17
2019-04-03T04:50:25.355Z,19.73
2019-04-03T04:52:45.635Z,20.50
2019-04-03T04:55:06.362Z,19.20
2019-04-03T04:57:26.902Z,19.80
2019-04-03T04:59:47.515Z,20.95
2019-04-03T05:02:08.191Z,20.25
2019-04-03T05:04:28.970Z,19.48
2019-04-03T05:06:49.581Z,21.70
2019-04-03T05:09:11.562Z,20.77
2019-04-03T05:11:32.143Z,20.95
2019-04-03T05:13:52.948Z,20.82
2019-04-03T05:16:13.567Z,20.05
2019-04-03T05:18:34.295Z,20.20
2019-04-03T05:20:55.336Z,20.90
2019-04-03T05:23:15.923Z,20.68
2019-04-03T05:25:36.529Z,21.07
2019-04-03T05:27:57.744Z,19.87
2019-04-03T05:30:29.363Z,20.27
2019-04-03T05:32:50.029Z,20.45
2019-04-03T05:35:10.726Z,20.30
2019-04-03T05:37:31.484Z,19.10
2019-04-03T05:39:54.740Z,21.25
2019-04-03T05:42:14.343Z,20.90
2019-04-03T05:44:36.560Z,21.05
2019-04-03T05:46:59.340Z,20.60
2019-04-03T05:49:19.714Z,16.62
2019-04-03T05:51:40.313Z,21.60
2019-04-03T05:54:01.094Z,21.30
2019-04-03T05:56:21.846Z,21.17
2019-04-03T05:58:56.946Z,21.42
2019-04-03T06:01:16.809Z,21.85
2019-04-03T06:03:40.699Z,22.05
2019-04-03T06:05:59.663Z,20.97
2019-04-03T06:08:20.733Z,20.88
2019-04-03T06:10:41.342Z,20.62
2019-04-03T06:13:04.903Z,20.65
2019-04-03T06:15:24.315Z,21.48
2019-04-03T06:17:44.899Z,20.37
2019-04-03T06:20:10.395Z,20.17
2019-04-03T06:22:29.859Z,20.10
2019-04-03T06:24:50.628Z,20.17
2019-04-03T06:27:11.260Z,19.87
2019-04-03T06:29:31.738Z,19.42
2019-04-03T06:31:52.271Z,19.00
2019-04-03T06:34:13.013Z,18.60
2019-04-03T06:36:34.468Z,18.10
2019-04-03T06:38:56.083Z,18.23
2019-04-03T06:41:16.695Z,17.75
2019-04-03T06:43:37.201Z,17.05
2019-04-03T06:45:58.303Z,17.95
2019-04-03T06:48:19.010Z,18.42
2019-04-03T06:50:39.263Z,17.60
2019-04-03T06:53:00.602Z,17.60
2019-04-03T06:55:20.948Z,18.43
2019-04-03T06:57:41.215Z,17.50
2019-04-03T07:00:02.496Z,18.30
2019-04-03T07:02:22.816Z,18.33
2019-04-03T07:04:43.392Z,17.00
2019-04-03T07:07:03.795Z,18.07
2019-04-03T07:09:34.168Z,17.83
2019-04-03T07:11:45.855Z,16.80
2019-04-03T07:14:06.194Z,18.30
2019-04-03T07:16:26.803Z,17.40
2019-04-03T07:18:48.460Z,16.43
2019-04-03T07:21:08.844Z,17.77
2019-04-03T07:23:29.963Z,17.73
2019-04-03T07:25:50.583Z,17.10
2019-04-03T07:28:10.839Z,16.80
2019-04-03T07:30:31.244Z,17.53
2019-04-03T07:32:51.559Z,16.33
2019-04-03T07:35:11.997Z,17.53
2019-04-03T07:37:32.591Z,17.60
2019-04-03T07:39:52.987Z,17.93
2019-04-03T07:42:13.221Z,16.53
2019-04-03T07:44:33.703Z,17.30
2019-04-03T07:46:55.274Z,17.43
2019-04-03T07:49:16.032Z,18.17
2019-04-03T07:51:43.719Z,17.07
2019-04-03T07:54:04.976Z,18.80
2019-04-03T07:56:25.898Z,19.73
2019-04-03T07:58:47.053Z,19.60
2019-04-03T08:01:09.511Z,19.60
2019-04-03T08:03:29.655Z,19.37
2019-04-03T08:05:49.969Z,20.13
2019-04-03T08:08:11.266Z,18.73
2019-04-03T08:10:31.842Z,19.57
2019-04-03T08:12:52.183Z,19.10
2019-04-03T08:15:13.875Z,18.80
2019-04-03T08:17:34.191Z,18.97
2019-04-03T08:19:55.209Z,18.73
2019-04-03T08:22:16.866Z,20.10
2019-04-03T08:24:37.937Z,19.37
2019-04-03T08:26:58.529Z,18.65
2019-04-03T08:29:18.820Z,19.32
2019-04-03T08:31:39.079Z,18.43
2019-04-03T08:33:59.986Z,18.67
2019-04-03T08:36:24.918Z,18.87
2019-04-03T08:38:44.855Z,17.70
2019-04-03T08:41:05.333Z,18.03
2019-04-03T08:43:25.624Z,18.93
2019-04-03T08:45:46.227Z,17.83
2019-04-03T08:48:07.270Z,18.37
2019-04-03T08:50:28.803Z,18.37
2019-04-03T08:52:49.439Z,17.83
2019-04-03T08:55:12.912Z,17.17
2019-04-03T08:57:32.101Z,17.95
2019-04-03T08:59:52.001Z,16.97
2019-04-03T09:02:13.167Z,17.37
2019-04-03T09:04:33.271Z,17.35
2019-04-03T09:06:54.526Z,17.37
2019-04-03T09:09:15.575Z,17.37
2019-04-03T09:11:36.309Z,16.97
2019-04-03T09:13:57.150Z,16.65
2019-04-03T09:16:17.138Z,16.40
2019-04-03T09:18:38.352Z,15.75
2019-04-03T09:20:58.642Z,15.78
2019-04-03T09:23:18.564Z,15.32
2019-04-03T09:25:38.464Z,15.58
2019-04-03T09:27:58.814Z,15.05
2019-04-03T09:30:19.698Z,15.67
2019-04-03T09:32:39.973Z,15.57
2019-04-03T09:35:01.433Z,15.47
2019-04-03T09:37:22.249Z,15.50
2019-04-03T09:39:43.013Z,16.03
2019-04-03T09:42:04.447Z,16.30
2019-04-03T09:44:25.884Z,15.50
2019-04-03T09:46:46.156Z,17.23
2019-04-03T09:49:07.573Z,16.27
2019-04-03T09:51:28.536Z,15.30
2019-04-03T09:53:49.220Z,15.87
2019-04-03T09:56:09.511Z,15.53
2019-04-03T09:58:29.786Z,17.17
2019-04-03T10:00:50.065Z,17.07
2019-04-03T10:03:10.724Z,17.33
2019-04-03T10:05:31.157Z,17.53
2019-04-03T10:07:51.650Z,16.83
2019-04-03T10:10:14.060Z,17.30
2019-04-03T10:12:34.606Z,16.95
2019-04-03T10:14:57.040Z,16.42
2019-04-03T10:17:18.753Z,16.63
2019-04-03T10:19:39.132Z,15.80
2019-04-03T10:21:59.663Z,16.43
2019-04-03T10:24:20.097Z,15.03
2019-04-03T10:26:40.913Z,15.63
2019-04-03T10:29:01.658Z,15.03
2019-04-03T10:31:24.233Z,15.57
2019-04-03T10:33:49.795Z,15.30
2019-04-03T10:36:11.415Z,14.47
2019-04-03T10:38:32.039Z,14.97
2019-04-03T10:40:52.104Z,12.23
2019-04-03T10:43:12.132Z,10.13
2019-04-03T10:45:32.672Z,10.33
2019-04-03T10:47:55.443Z,8.90
2019-04-03T10:50:15.119Z,8.93
2019-04-03T10:52:35.699Z,8.00
2019-04-03T10:54:57.299Z,6.60
2019-04-03T10:57:17.634Z,6.73
2019-04-03T10:59:38.082Z,5.93
2019-04-03T11:01:58.692Z,5.70
2019-04-03T11:04:19.083Z,5.70
2019-04-03T11:06:39.437Z,6.10
2019-04-03T11:08:59.979Z,5.77
2019-04-03T11:11:20.255Z,5.77
2019-04-03T11:13:40.484Z,6.30
2019-04-03T11:16:00.763Z,6.63
2019-04-03T11:18:21.788Z,6.63
2019-04-03T11:20:42.418Z,6.47
2019-04-03T11:23:06.439Z,7.27
2019-04-03T11:25:24.846Z,6.17
2019-04-03T11:27:46.125Z,7.60
2019-04-03T11:30:11.884Z,6.70
2019-04-03T11:32:31.716Z,7.77
2019-04-03T11:34:53.763Z,6.63
2019-04-03T11:37:13.891Z,6.60
2019-04-03T11:39:34.256Z,6.43
2019-04-03T11:41:56.169Z,6.67
2019-04-03T11:46:36.486Z,7.15
2019-04-03T11:48:56.515Z,7.40
2019-04-03T11:51:16.720Z,6.67
2019-04-03T11:53:36.932Z,6.87
2019-04-03T11:55:56.910Z,6.50
2019-04-03T11:58:18.026Z,6.33
2019-04-03T12:00:40.384Z,6.63
2019-04-03T12:03:00.624Z,6.40
2019-04-03T12:05:21.560Z,6.77
2019-04-03T12:07:42.228Z,6.97
2019-04-03T12:10:04.184Z,7.00
2019-04-03T12:12:24.767Z,7.20
2019-04-03T12:14:45.041Z,6.60
2019-04-03T12:17:05.687Z,6.50
2019-04-03T12:19:26.211Z,7.37
2019-04-03T12:21:46.775Z,6.90
2019-04-03T12:24:08.521Z,7.20
2019-04-03T12:26:28.827Z,6.63
2019-04-03T12:28:50.060Z,6.70
2019-04-03T12:33:59.040Z,6.00
2019-04-03T12:36:15.890Z,6.30
2019-04-03T12:38:35.873Z,6.25
2019-04-03T12:40:55.884Z,5.62
2019-04-03T12:43:16.562Z,6.00
2019-04-03T12:45:36.865Z,6.00
2019-04-03T12:47:58.054Z,6.10
2019-04-03T12:50:18.649Z,6.40
2019-04-03T12:52:38.919Z,6.70
2019-04-03T12:54:59.060Z,5.70
2019-04-03T12:57:19.245Z,5.80
2019-04-03T12:59:40.351Z,5.90
2019-04-03T13:02:01.012Z,5.73
2019-04-03T13:04:21.332Z,5.63
2019-04-03T13:06:42.367Z,5.50
2019-04-03T13:09:04.297Z,5.73
2019-04-03T13:11:24.862Z,5.23
2019-04-03T13:13:45.070Z,5.57
2019-04-03T13:16:07.365Z,5.10
2019-04-03T13:18:27.872Z,5.33
2019-04-03T13:20:49.190Z,5.10
2019-04-03T13:23:12.458Z,4.93
2019-04-03T13:25:31.442Z,5.10
2019-04-03T13:27:51.915Z,5.30
2019-04-03T13:30:13.757Z,5.33
2019-04-03T13:32:34.149Z,4.93
2019-04-03T13:34:54.387Z,4.77
2019-04-03T13:37:14.654Z,4.87
2019-04-03T13:39:34.983Z,4.93
2019-04-03T13:41:55.422Z,4.47
2019-04-03T13:44:15.696Z,4.00
2019-04-03T13:46:37.531Z,4.00
2019-04-03T13:48:58.171Z,4.03
2019-04-03T13:51:18.842Z,4.00
2019-04-03T13:53:39.235Z,3.70
2019-04-03T13:56:00.029Z,3.80
2019-04-03T13:58:21.117Z,3.50
2019-04-03T14:00:52.105Z,3.37
2019-04-03T14:03:03.995Z,3.70
2019-04-03T14:05:27.248Z,3.43
2019-04-03T14:07:46.231Z,3.60
2019-04-03T14:10:09.869Z,3.50
2019-04-03T14:12:30.140Z,3.93
2019-04-03T14:14:50.382Z,3.87
2019-04-03T14:17:13.060Z,3.50
2019-04-03T14:19:42.546Z,3.53
2019-04-03T14:21:54.546Z,3.80
2019-04-03T14:24:14.645Z,3.72
2019-04-03T14:26:35.421Z,4.10
2019-04-03T14:28:55.789Z,4.33
2019-04-03T14:31:17.874Z,3.92
2019-04-03T14:33:44.207Z,3.98
2019-04-03T14:35:59.450Z,4.70
2019-04-03T14:38:19.503Z,4.50
2019-04-03T14:40:39.558Z,4.00
2019-04-03T14:43:00.262Z,4.40
2019-04-03T14:45:21.065Z,4.80
2019-04-03T14:47:41.822Z,7.47
2019-04-03T14:50:05.334Z,7.70
2019-04-03T14:54:45.135Z,7.30
2019-04-03T14:57:13.318Z,4.30
2019-04-03T14:59:29.518Z,3.98
2019-04-03T15:01:50.718Z,3.97
2019-04-03T15:04:10.799Z,3.50
2019-04-03T15:06:31.085Z,4.00
2019-04-03T15:08:53.949Z,5.40
2019-04-03T15:11:13.463Z,4.10
2019-04-03T15:13:33.738Z,4.77
2019-04-03T15:15:54.505Z,4.20
2019-04-03T15:18:15.289Z,4.70
2019-04-03T15:20:35.527Z,4.50
2019-04-03T15:22:56.043Z,4.13
2019-04-03T15:25:19.603Z,4.70
2019-04-03T15:27:39.185Z,3.87
2019-04-03T15:29:59.996Z,3.97
2019-04-03T15:32:21.659Z,3.57
2019-04-03T15:34:41.949Z,3.93
2019-04-03T15:37:02.288Z,3.33
2019-04-03T15:39:23.397Z,3.23
2019-04-03T15:41:43.664Z,3.23
2019-04-03T15:44:05.016Z,3.30
2019-04-03T15:46:25.326Z,3.43
2019-04-03T15:48:45.686Z,3.53
2019-04-03T15:51:07.184Z,3.47
2019-04-03T15:53:27.464Z,3.83
2019-04-03T15:55:48.035Z,3.77
2019-04-03T15:58:08.392Z,4.30
2019-04-03T16:00:29.393Z,4.00
2019-04-03T16:02:49.594Z,3.80
2019-04-03T16:05:10.703Z,3.67
2019-04-03T16:07:33.254Z,4.37
2019-04-03T16:09:52.867Z,4.13
2019-04-03T16:12:13.618Z,4.00
2019-04-03T16:14:34.094Z,4.33
2019-04-03T16:16:54.329Z,4.60
2019-04-03T16:19:14.623Z,4.50
2019-04-03T16:21:34.951Z,4.90
2019-04-03T16:23:55.190Z,4.73
2019-04-03T16:26:15.917Z,5.20
2019-04-03T16:28:36.179Z,5.10
2019-04-03T16:30:56.987Z,5.37
2019-04-03T16:33:22.456Z,5.10
2019-04-03T16:35:39.459Z,6.03
2019-04-03T16:38:00.282Z,6.17
2019-04-03T16:40:20.630Z,6.10
2019-04-03T16:42:40.968Z,6.27
2019-04-03T16:45:04.482Z,5.83
2019-04-03T16:47:23.480Z,5.93
2019-04-03T16:49:43.813Z,6.70
2019-04-03T16:52:05.606Z,6.40
2019-04-03T16:54:28.780Z,6.00
2019-04-03T16:56:50.600Z,6.33
2019-04-03T16:59:10.914Z,6.03
2019-04-03T17:01:31.220Z,6.03
2019-04-03T17:03:51.444Z,6.37
2019-04-03T17:06:15.346Z,6.40
2019-04-03T17:08:33.906Z,6.27
2019-04-03T17:10:54.222Z,6.73
2019-04-03T17:13:14.574Z,6.53
2019-04-03T17:15:35.757Z,7.40
2019-04-03T17:17:56.383Z,6.83
2019-04-03T17:20:17.231Z,7.03
2019-04-03T17:22:40.217Z,6.73
2019-04-03T17:25:00.106Z,5.30
2019-04-03T17:27:22.045Z,6.90
2019-04-03T17:29:43.809Z,7.55
2019-04-03T17:32:07.673Z,7.58
2019-04-03T17:34:26.811Z,5.47
2019-04-03T17:36:46.831Z,8.03
2019-04-03T17:39:09.045Z,6.75
2019-04-03T17:41:30.614Z,7.47
2019-04-03T17:43:53.179Z,7.45
2019-04-03T17:46:13.213Z,6.40
2019-04-03T17:48:33.786Z,8.68
2019-04-03T17:53:00.194Z,7.87
2019-04-03T17:55:20.875Z,7.85
2019-04-03T17:57:40.839Z,8.13
2019-04-03T18:00:01.172Z,7.70
2019-04-03T18:02:22.814Z,7.30
2019-04-03T18:04:43.555Z,8.07
2019-04-03T18:07:04.740Z,6.67
2019-04-03T18:09:25.275Z,7.10
2019-04-03T18:11:47.426Z,7.25
2019-04-03T18:14:07.429Z,7.47
2019-04-03T18:16:27.926Z,8.03
2019-04-03T18:18:50.127Z,6.50
2019-04-03T18:21:12.940Z,6.27
2019-04-03T18:23:32.596Z,7.33
2019-04-03T18:25:53.822Z,7.20
2019-04-03T18:28:14.459Z,6.72
2019-04-03T18:30:35.381Z,6.75
2019-04-03T18:32:55.935Z,6.97
2019-04-03T18:35:16.075Z,6.83
2019-04-03T18:37:36.670Z,7.15
2019-04-03T18:39:57.259Z,7.25
2019-04-03T18:42:18.627Z,7.62
2019-04-03T18:44:39.096Z,6.80
2019-04-03T18:46:59.334Z,6.77
2019-04-03T18:49:20.016Z,7.60
2019-04-03T18:51:40.565Z,7.20
2019-04-03T18:54:01.045Z,7.95
2019-04-03T18:56:21.079Z,7.30
2019-04-03T18:58:43.961Z,7.67
2019-04-03T19:01:04.511Z,7.72
2019-04-03T19:03:25.156Z,7.80
2019-04-03T19:05:45.243Z,8.33
2019-04-03T19:08:13.062Z,7.87
2019-04-03T19:10:28.783Z,7.28
2019-04-03T19:12:49.344Z,7.97
2019-04-03T19:15:09.853Z,8.10
2019-04-03T19:17:30.488Z,7.97
2019-04-03T19:19:51.062Z,8.83
2019-04-03T19:22:11.601Z,8.48
2019-04-03T19:24:32.184Z,9.50
2019-04-03T19:26:52.868Z,8.80
2019-04-03T19:29:12.804Z,8.35
2019-04-03T19:31:33.389Z,8.85
2019-04-03T19:33:53.371Z,8.45
2019-04-03T19:36:13.984Z,8.43
2019-04-03T19:38:35.845Z,8.63
2019-04-03T19:40:56.685Z,8.68
2019-04-03T19:43:17.231Z,9.10
2019-04-03T19:45:37.302Z,8.73
2019-04-03T19:47:57.219Z,8.33
2019-04-03T19:50:18.107Z,8.55
2019-04-03T19:52:41.580Z,8.90
2019-04-03T19:55:01.027Z,8.63
2019-04-03T19:57:21.697Z,8.80
2019-04-03T19:59:43.291Z,9.18
2019-04-03T20:02:03.955Z,8.93
2019-04-03T20:04:24.044Z,9.83
2019-04-03T20:06:44.101Z,9.33
2019-04-03T20:09:05.794Z,9.68
2019-04-03T20:11:26.506Z,8.38
2019-04-03T20:13:47.104Z,11.22
2019-04-03T20:16:07.577Z,11.50
2019-04-03T20:18:28.222Z,12.50
2019-04-03T20:20:48.759Z,11.88
2019-04-03T20:23:10.739Z,11.80
2019-04-03T20:25:31.248Z,9.27
2019-04-03T20:27:52.442Z,12.80
2019-04-03T20:30:13.625Z,12.20
2019-04-03T20:32:34.280Z,11.73
2019-04-03T20:34:55.266Z,12.05
2019-04-03T20:37:18.498Z,12.05
2019-04-03T20:39:38.587Z,11.90
2019-04-03T20:41:59.126Z,11.78
2019-04-03T20:44:19.677Z,11.75
2019-04-03T20:46:40.159Z,11.60
2019-04-03T20:49:03.033Z,12.07
2019-04-03T20:51:24.036Z,9.18
2019-04-03T20:53:44.805Z,11.97
2019-04-03T20:56:06.483Z,11.22
2019-04-03T20:58:27.629Z,11.83
2019-04-03T21:00:49.970Z,11.68
2019-04-03T21:03:12.590Z,8.50
2019-04-03T21:05:32.968Z,13.13
2019-04-03T21:07:55.729Z,12.85
2019-04-03T21:10:15.917Z,13.45
2019-04-03T21:12:36.479Z,12.07
2019-04-03T21:15:07.630Z,12.68
2019-04-03T21:17:19.440Z,12.80
2019-04-03T21:19:40.336Z,13.15
2019-04-03T21:22:00.969Z,12.90
2019-04-03T21:24:21.575Z,13.00
2019-04-03T21:26:42.136Z,12.47
2019-04-03T21:29:02.628Z,12.35
2019-04-03T21:31:25.607Z,12.85
2019-04-03T21:33:45.375Z,12.13
2019-04-03T21:36:07.583Z,12.00
2019-04-03T21:38:28.426Z,12.68
2019-04-03T21:40:48.979Z,12.88
2019-04-03T21:43:09.534Z,11.55
2019-04-03T21:45:30.222Z,12.80
2019-04-03T21:47:50.753Z,13.22
2019-04-03T21:50:11.542Z,13.58
2019-04-03T21:52:32.044Z,14.18
2019-04-03T21:54:52.650Z,14.25
2019-04-03T21:57:13.246Z,13.80
2019-04-03T21:59:33.819Z,13.35
2019-04-03T22:01:54.469Z,12.98
2019-04-03T22:04:15.625Z,14.10
2019-04-03T22:06:36.640Z,14.40
2019-04-03T22:08:59.687Z,14.07
2019-04-03T22:11:19.512Z,13.83
2019-04-03T22:13:40.081Z,13.50
2019-04-03T22:16:00.629Z,13.83
2019-04-03T22:18:23.509Z,14.50
2019-04-03T22:20:44.000Z,14.33
2019-04-03T22:23:05.569Z,14.83
2019-04-03T22:25:26.915Z,14.73
2019-04-03T22:27:48.147Z,13.85
2019-04-03T22:30:09.473Z,13.75
2019-04-03T22:32:30.748Z,14.68
2019-04-03T22:34:52.431Z,13.75
2019-04-03T22:37:14.285Z,13.53
2019-04-03T22:39:40.154Z,12.33
2019-04-03T22:42:05.671Z,13.20
2019-04-03T22:44:27.466Z,13.95
2019-04-03T22:46:48.988Z,14.63
2019-04-03T22:49:10.136Z,14.63
2019-04-03T22:51:31.322Z,13.60
2019-04-03T22:53:52.811Z,14.35
2019-04-03T22:56:16.559Z,12.88
2019-04-03T22:58:36.616Z,13.78
2019-04-03T23:00:59.306Z,13.08
2019-04-03T23:03:20.382Z,12.47
2019-04-03T23:05:41.616Z,12.88
2019-04-03T23:08:03.167Z,13.28
2019-04-03T23:10:24.620Z,13.53
2019-04-03T23:12:52.293Z,13.53
2019-04-03T23:15:13.209Z,13.30
2019-04-03T23:17:34.354Z,13.32
2019-04-03T23:19:55.408Z,12.85
2019-04-03T23:22:16.568Z,13.98
2019-04-03T23:24:37.584Z,13.72
2019-04-03T23:26:58.820Z,12.95
2019-04-03T23:29:19.792Z,13.58
2019-04-03T23:31:40.265Z,13.22
2019-04-03T23:34:00.774Z,14.05
2019-04-03T23:36:22.968Z,13.40
2019-04-03T23:38:43.624Z,13.32
2019-04-03T23:41:06.114Z,13.53
2019-04-03T23:43:28.578Z,13.88
2019-04-03T23:45:49.186Z,13.85
2019-04-03T23:48:09.793Z,13.45
2019-04-03T23:50:30.338Z,13.93
2019-04-03T23:52:51.039Z,13.88
2019-04-03T23:55:11.667Z,13.30
2019-04-03T23:57:32.205Z,14.30
2019-04-03T23:59:52.891Z,12.90
